TCISK OSAP-LTFB
Flight info
| Callsign | TCISK |
|---|---|
| Flight time | 1h 32m |
| Altitude | 43000 |
| Route | NISAP UM861 MILBA UW74 MUT UR55 AYT UT489 SISVO DCT SEL |
| Aircraft | C750/M-SBDE3FGHRWXY/S |
Departure
| Time | 2026-04-19 18:32 |
|---|---|
| Airport | Aleppo International Airport (OSAP) |
Arrival
| Time | 2026-04-19 20:05 |
|---|---|
| Airport | Selçuk Efes Airport (LTFB) |
| Time | Latitude | Longitude | Altitude | Speed | Heading |
|---|---|---|---|---|---|
| 2026-04-19 18:19 | 36.18354 | 37.23003 | 1266 ft | 0 kts | 275° |
| 2026-04-19 18:29 | 36.18354 | 37.23001 | 1262 ft | 1 kts | 275° |
| 2026-04-19 18:29 | 36.18340 | 37.22965 | 1264 ft | 10 kts | 201° |
| 2026-04-19 18:30 | 36.18239 | 37.22954 | 1260 ft | 13 kts | 186° |
| 2026-04-19 18:30 | 36.18194 | 37.22951 | 1259 ft | 4 kts | 175° |
| 2026-04-19 18:30 | 36.18171 | 37.22974 | 1259 ft | 5 kts | 113° |
| 2026-04-19 18:30 | 36.18166 | 37.23028 | 1266 ft | 9 kts | 96° |
| 2026-04-19 18:31 | 36.18156 | 37.23143 | 1260 ft | 18 kts | 96° |
| 2026-04-19 18:31 | 36.18131 | 37.23275 | 1263 ft | 14 kts | 137° |
| 2026-04-19 18:31 | 36.18059 | 37.23224 | 1265 ft | 16 kts | 246° |
| 2026-04-19 18:31 | 36.18011 | 37.23058 | 1261 ft | 28 kts | 261° |
| 2026-04-19 18:32 | 36.18039 | 37.22694 | 1265 ft | 79 kts | 276° |
| 2026-04-19 18:32 | 36.18140 | 37.21660 | 1529 ft | 128 kts | 278° |
| 2026-04-19 18:32 | 36.18258 | 37.20664 | 2566 ft | 113 kts | 273° |
| 2026-04-19 18:32 | 36.18418 | 37.19679 | 3280 ft | 126 kts | 277° |
| 2026-04-19 18:33 | 36.18661 | 37.18550 | 3838 ft | 142 kts | 279° |
| 2026-04-19 18:33 | 36.18942 | 37.17361 | 4578 ft | 147 kts | 280° |
| 2026-04-19 18:33 | 36.19220 | 37.16029 | 4962 ft | 173 kts | 279° |
| 2026-04-19 18:33 | 36.19525 | 37.14445 | 5332 ft | 205 kts | 280° |
| 2026-04-19 18:34 | 36.19886 | 37.12626 | 5878 ft | 230 kts | 281° |
| 2026-04-19 18:34 | 36.20293 | 37.10607 | 6430 ft | 253 kts | 281° |
| 2026-04-19 18:34 | 36.20723 | 37.08477 | 7418 ft | 256 kts | 281° |
| 2026-04-19 18:34 | 36.21154 | 37.06322 | 8498 ft | 261 kts | 281° |
| 2026-04-19 18:35 | 36.21592 | 37.04116 | 9535 ft | 267 kts | 280° |
| 2026-04-19 18:35 | 36.22041 | 37.01857 | 10329 ft | 277 kts | 280° |
| 2026-04-19 18:35 | 36.22520 | 36.99433 | 10597 ft | 303 kts | 281° |
| 2026-04-19 18:35 | 36.23046 | 36.96783 | 10725 ft | 331 kts | 281° |
| 2026-04-19 18:36 | 36.23608 | 36.93977 | 11366 ft | 336 kts | 281° |
| 2026-04-19 18:36 | 36.24171 | 36.91153 | 12142 ft | 340 kts | 281° |
| 2026-04-19 18:36 | 36.24735 | 36.88289 | 12849 ft | 344 kts | 281° |
| 2026-04-19 18:36 | 36.25306 | 36.85397 | 13578 ft | 348 kts | 281° |
| 2026-04-19 18:37 | 36.25885 | 36.82468 | 14228 ft | 352 kts | 281° |
| 2026-04-19 18:37 | 36.26468 | 36.79516 | 14899 ft | 354 kts | 281° |
| 2026-04-19 18:37 | 36.27053 | 36.76540 | 15546 ft | 357 kts | 281° |
| 2026-04-19 18:37 | 36.27643 | 36.73534 | 16208 ft | 361 kts | 281° |
| 2026-04-19 18:38 | 36.28240 | 36.70495 | 16892 ft | 364 kts | 281° |
| 2026-04-19 18:38 | 36.28841 | 36.67431 | 17609 ft | 368 kts | 281° |
| 2026-04-19 18:38 | 36.29446 | 36.64336 | 18302 ft | 371 kts | 281° |
| 2026-04-19 18:38 | 36.30057 | 36.61210 | 18958 ft | 374 kts | 281° |
| 2026-04-19 18:39 | 36.30673 | 36.58059 | 19631 ft | 378 kts | 280° |
| 2026-04-19 18:39 | 36.31291 | 36.54882 | 20315 ft | 381 kts | 280° |
| 2026-04-19 18:39 | 36.31915 | 36.51675 | 20993 ft | 384 kts | 280° |
| 2026-04-19 18:39 | 36.32543 | 36.48444 | 21723 ft | 386 kts | 279° |
| 2026-04-19 18:40 | 36.33171 | 36.45202 | 22422 ft | 389 kts | 279° |
| 2026-04-19 18:40 | 36.33806 | 36.41924 | 23043 ft | 393 kts | 279° |
| 2026-04-19 18:40 | 36.34446 | 36.38615 | 23643 ft | 396 kts | 279° |
| 2026-04-19 18:40 | 36.35090 | 36.35274 | 24186 ft | 399 kts | 279° |
| 2026-04-19 18:41 | 36.35764 | 36.31921 | 24707 ft | 404 kts | 282° |
| 2026-04-19 18:41 | 36.36785 | 36.28632 | 25228 ft | 412 kts | 290° |
| 2026-04-19 18:41 | 36.38198 | 36.25506 | 25762 ft | 420 kts | 298° |
| 2026-04-19 18:41 | 36.39854 | 36.22485 | 26272 ft | 425 kts | 299° |
| 2026-04-19 18:42 | 36.41508 | 36.19433 | 26797 ft | 428 kts | 298° |
| 2026-04-19 18:42 | 36.43165 | 36.16345 | 27330 ft | 432 kts | 298° |
| 2026-04-19 18:42 | 36.44846 | 36.13235 | 27865 ft | 436 kts | 298° |
| 2026-04-19 18:42 | 36.46549 | 36.10104 | 28427 ft | 439 kts | 298° |
| 2026-04-19 18:43 | 36.48260 | 36.06942 | 28950 ft | 443 kts | 298° |
| 2026-04-19 18:43 | 36.49978 | 36.03749 | 29479 ft | 446 kts | 298° |
| 2026-04-19 18:43 | 36.51711 | 36.00530 | 29983 ft | 450 kts | 298° |
| 2026-04-19 18:43 | 36.53462 | 35.97286 | 30422 ft | 453 kts | 298° |
| 2026-04-19 18:44 | 36.55221 | 35.94021 | 30891 ft | 455 kts | 298° |
| 2026-04-19 18:44 | 36.56976 | 35.90759 | 31583 ft | 452 kts | 298° |
| 2026-04-19 18:44 | 36.58695 | 35.87561 | 32237 ft | 450 kts | 297° |
| 2026-04-19 18:44 | 36.60451 | 35.84285 | 32894 ft | 448 kts | 297° |
| 2026-04-19 18:45 | 36.62156 | 35.81104 | 33551 ft | 447 kts | 297° |
| 2026-04-19 18:45 | 36.63878 | 35.77891 | 34148 ft | 445 kts | 297° |
| 2026-04-19 18:45 | 36.65593 | 35.74684 | 34694 ft | 445 kts | 297° |
| 2026-04-19 18:45 | 36.67308 | 35.71474 | 35166 ft | 446 kts | 297° |
| 2026-04-19 18:46 | 36.69024 | 35.68263 | 35704 ft | 445 kts | 298° |
| 2026-04-19 18:46 | 36.70735 | 35.65058 | 36240 ft | 444 kts | 298° |
| 2026-04-19 18:46 | 36.72443 | 35.61855 | 36796 ft | 443 kts | 298° |
| 2026-04-19 18:46 | 36.74146 | 35.58656 | 37361 ft | 442 kts | 298° |
| 2026-04-19 18:47 | 36.75846 | 35.55461 | 37933 ft | 442 kts | 298° |
| 2026-04-19 18:47 | 36.77541 | 35.52273 | 38507 ft | 441 kts | 298° |
| 2026-04-19 18:47 | 36.79232 | 35.49089 | 38961 ft | 441 kts | 298° |
| 2026-04-19 18:47 | 36.80926 | 35.45895 | 39343 ft | 442 kts | 298° |
| 2026-04-19 18:48 | 36.82622 | 35.42696 | 39759 ft | 442 kts | 298° |
| 2026-04-19 18:48 | 36.84315 | 35.39500 | 40166 ft | 442 kts | 298° |
| 2026-04-19 18:48 | 36.86006 | 35.36305 | 40579 ft | 442 kts | 298° |
| 2026-04-19 18:48 | 36.87697 | 35.33104 | 40990 ft | 441 kts | 298° |
| 2026-04-19 18:49 | 36.89386 | 35.29905 | 41400 ft | 441 kts | 298° |
| 2026-04-19 18:49 | 36.91047 | 35.26687 | 41780 ft | 439 kts | 295° |
| 2026-04-19 18:49 | 36.92365 | 35.23271 | 42170 ft | 434 kts | 287° |
| 2026-04-19 18:49 | 36.93265 | 35.19690 | 42545 ft | 430 kts | 279° |
| 2026-04-19 18:50 | 36.93747 | 35.16028 | 42842 ft | 427 kts | 272° |
| 2026-04-19 18:50 | 36.93680 | 35.08499 | 42837 ft | 442 kts | 265° |
| 2026-04-19 18:51 | 36.93454 | 35.00685 | 42839 ft | 458 kts | 265° |
| 2026-04-19 18:51 | 36.93198 | 34.92622 | 42836 ft | 469 kts | 265° |
| 2026-04-19 18:52 | 36.92812 | 34.80380 | 42838 ft | 471 kts | 265° |
| 2026-04-19 18:52 | 36.92540 | 34.72197 | 42845 ft | 472 kts | 266° |
| 2026-04-19 18:53 | 36.92269 | 34.63989 | 42825 ft | 473 kts | 266° |
| 2026-04-19 18:53 | 36.91989 | 34.55851 | 42836 ft | 472 kts | 265° |
| 2026-04-19 18:54 | 36.91704 | 34.47666 | 42840 ft | 472 kts | 265° |
| 2026-04-19 18:54 | 36.91412 | 34.39457 | 42864 ft | 473 kts | 265° |
| 2026-04-19 18:55 | 36.91055 | 34.31251 | 42888 ft | 473 kts | 265° |
| 2026-04-19 18:55 | 36.90710 | 34.23049 | 42870 ft | 473 kts | 265° |
| 2026-04-19 18:56 | 36.90354 | 34.14841 | 42904 ft | 473 kts | 265° |
| 2026-04-19 18:56 | 36.89991 | 34.06632 | 42906 ft | 473 kts | 265° |
| 2026-04-19 18:57 | 36.89626 | 33.98431 | 42932 ft | 473 kts | 265° |
| 2026-04-19 18:57 | 36.89252 | 33.90212 | 42940 ft | 475 kts | 265° |
| 2026-04-19 18:58 | 36.88873 | 33.81977 | 42948 ft | 475 kts | 265° |
| 2026-04-19 18:58 | 36.88487 | 33.73747 | 42959 ft | 475 kts | 265° |
| 2026-04-19 18:59 | 36.88097 | 33.65517 | 42961 ft | 474 kts | 265° |
| 2026-04-19 18:59 | 36.87701 | 33.57304 | 42947 ft | 474 kts | 265° |
| 2026-04-19 19:00 | 36.87300 | 33.49089 | 42947 ft | 473 kts | 265° |
| 2026-04-19 19:00 | 36.86894 | 33.40896 | 42944 ft | 473 kts | 265° |
| 2026-04-19 19:01 | 36.86482 | 33.32696 | 42955 ft | 473 kts | 265° |
| 2026-04-19 19:01 | 36.86469 | 33.24478 | 42958 ft | 475 kts | 271° |
| 2026-04-19 19:02 | 36.86731 | 33.16299 | 42958 ft | 474 kts | 270° |
| 2026-04-19 19:02 | 36.86998 | 33.08080 | 42952 ft | 473 kts | 271° |
| 2026-04-19 19:03 | 36.87261 | 32.99869 | 42966 ft | 473 kts | 270° |
| 2026-04-19 19:03 | 36.87513 | 32.91661 | 42977 ft | 473 kts | 271° |
| 2026-04-19 19:04 | 36.87764 | 32.83456 | 42971 ft | 472 kts | 271° |
| 2026-04-19 19:04 | 36.88006 | 32.75269 | 42984 ft | 471 kts | 271° |
| 2026-04-19 19:05 | 36.88206 | 32.68400 | 42991 ft | 472 kts | 271° |
| 2026-04-19 19:05 | 36.88436 | 32.60255 | 42991 ft | 473 kts | 271° |
| 2026-04-19 19:06 | 36.88665 | 32.52029 | 42981 ft | 473 kts | 271° |
| 2026-04-19 19:06 | 36.88888 | 32.43810 | 42983 ft | 474 kts | 271° |
| 2026-04-19 19:07 | 36.89111 | 32.35586 | 42982 ft | 473 kts | 271° |
| 2026-04-19 19:07 | 36.89326 | 32.27365 | 42962 ft | 473 kts | 271° |
| 2026-04-19 19:08 | 36.89535 | 32.19154 | 42961 ft | 473 kts | 271° |
| 2026-04-19 19:08 | 36.89739 | 32.10931 | 42961 ft | 474 kts | 271° |
| 2026-04-19 19:09 | 36.89938 | 32.02713 | 42940 ft | 471 kts | 271° |
| 2026-04-19 19:09 | 36.90129 | 31.94534 | 42916 ft | 472 kts | 271° |
| 2026-04-19 19:10 | 36.90294 | 31.86346 | 42917 ft | 471 kts | 271° |
| 2026-04-19 19:10 | 36.90459 | 31.78158 | 42917 ft | 471 kts | 271° |
| 2026-04-19 19:11 | 36.90386 | 31.70002 | 42893 ft | 471 kts | 267° |
| 2026-04-19 19:11 | 36.90128 | 31.61839 | 42897 ft | 470 kts | 268° |
| 2026-04-19 19:12 | 36.89872 | 31.53683 | 42901 ft | 470 kts | 267° |
| 2026-04-19 19:12 | 36.89598 | 31.45485 | 42897 ft | 473 kts | 267° |
| 2026-04-19 19:13 | 36.89669 | 31.37324 | 42887 ft | 470 kts | 272° |
| 2026-04-19 19:13 | 36.90021 | 31.29170 | 42895 ft | 470 kts | 272° |
| 2026-04-19 19:14 | 36.90372 | 31.21005 | 42892 ft | 474 kts | 272° |
| 2026-04-19 19:14 | 36.90725 | 31.12775 | 42897 ft | 474 kts | 272° |
| 2026-04-19 19:15 | 36.91066 | 31.04545 | 42895 ft | 474 kts | 272° |
| 2026-04-19 19:15 | 36.91407 | 30.96308 | 42899 ft | 475 kts | 272° |
| 2026-04-19 19:16 | 36.91739 | 30.88053 | 42917 ft | 475 kts | 272° |
| 2026-04-19 19:16 | 36.92175 | 30.79820 | 42896 ft | 476 kts | 277° |
| 2026-04-19 19:17 | 36.93788 | 30.71784 | 42919 ft | 478 kts | 284° |
| 2026-04-19 19:17 | 36.95549 | 30.63781 | 42921 ft | 477 kts | 284° |
| 2026-04-19 19:18 | 36.97314 | 30.55782 | 42920 ft | 477 kts | 284° |
| 2026-04-19 19:18 | 36.99072 | 30.47773 | 42924 ft | 477 kts | 284° |
| 2026-04-19 19:19 | 37.00822 | 30.39767 | 42958 ft | 477 kts | 284° |
| 2026-04-19 19:20 | 37.03438 | 30.27758 | 42979 ft | 476 kts | 284° |
| 2026-04-19 19:20 | 37.05174 | 30.19752 | 42977 ft | 477 kts | 284° |
| 2026-04-19 19:21 | 37.06906 | 30.11737 | 42985 ft | 477 kts | 284° |
| 2026-04-19 19:21 | 37.08629 | 30.03735 | 42981 ft | 475 kts | 284° |
| 2026-04-19 19:22 | 37.10346 | 29.95730 | 42989 ft | 476 kts | 284° |
| 2026-04-19 19:22 | 37.12045 | 29.87777 | 42993 ft | 476 kts | 284° |
| 2026-04-19 19:23 | 37.13747 | 29.79766 | 43004 ft | 475 kts | 284° |
| 2026-04-19 19:23 | 37.15453 | 29.71712 | 42999 ft | 475 kts | 284° |
| 2026-04-19 19:24 | 37.17143 | 29.63705 | 42997 ft | 475 kts | 284° |
| 2026-04-19 19:24 | 37.17963 | 29.59805 | 42516 ft | 462 kts | 284° |
| 2026-04-19 19:24 | 37.18763 | 29.55963 | 41921 ft | 449 kts | 284° |
| 2026-04-19 19:24 | 37.19538 | 29.52228 | 41348 ft | 437 kts | 284° |
| 2026-04-19 19:25 | 37.20298 | 29.48582 | 40781 ft | 429 kts | 284° |
| 2026-04-19 19:25 | 37.21048 | 29.44976 | 40227 ft | 426 kts | 284° |
| 2026-04-19 19:25 | 37.21806 | 29.41321 | 39652 ft | 428 kts | 284° |
| 2026-04-19 19:25 | 37.22556 | 29.37698 | 39091 ft | 430 kts | 285° |
| 2026-04-19 19:26 | 37.23301 | 29.34111 | 38500 ft | 431 kts | 285° |
| 2026-04-19 19:26 | 37.24058 | 29.30474 | 37904 ft | 431 kts | 285° |
| 2026-04-19 19:26 | 37.24813 | 29.26827 | 37344 ft | 433 kts | 285° |
| 2026-04-19 19:26 | 37.25568 | 29.23166 | 36761 ft | 432 kts | 286° |
| 2026-04-19 19:27 | 37.26321 | 29.19505 | 36195 ft | 435 kts | 286° |
| 2026-04-19 19:27 | 37.27077 | 29.15824 | 35621 ft | 436 kts | 286° |
| 2026-04-19 19:27 | 37.27833 | 29.12139 | 35054 ft | 437 kts | 286° |
| 2026-04-19 19:27 | 37.28590 | 29.08440 | 34474 ft | 437 kts | 287° |
| 2026-04-19 19:28 | 37.29346 | 29.04740 | 33895 ft | 438 kts | 287° |
| 2026-04-19 19:28 | 37.30103 | 29.01032 | 33292 ft | 439 kts | 287° |
| 2026-04-19 19:28 | 37.30862 | 28.97305 | 32713 ft | 442 kts | 287° |
| 2026-04-19 19:28 | 37.31623 | 28.93562 | 32128 ft | 444 kts | 287° |
| 2026-04-19 19:29 | 37.32389 | 28.89791 | 31535 ft | 446 kts | 287° |
| 2026-04-19 19:29 | 37.33155 | 28.86006 | 30958 ft | 448 kts | 287° |
| 2026-04-19 19:29 | 37.33926 | 28.82197 | 30369 ft | 450 kts | 287° |
| 2026-04-19 19:29 | 37.34690 | 28.78403 | 29729 ft | 445 kts | 287° |
| 2026-04-19 19:30 | 37.35494 | 28.74676 | 29126 ft | 438 kts | 291° |
| 2026-04-19 19:30 | 37.36850 | 28.71307 | 28558 ft | 429 kts | 305° |
| 2026-04-19 19:30 | 37.38571 | 28.68251 | 28016 ft | 427 kts | 308° |
| 2026-04-19 19:30 | 37.40304 | 28.65253 | 27444 ft | 420 kts | 309° |
| 2026-04-19 19:31 | 37.41999 | 28.62286 | 26902 ft | 416 kts | 308° |
| 2026-04-19 19:31 | 37.43668 | 28.59333 | 26356 ft | 413 kts | 308° |
| 2026-04-19 19:31 | 37.45327 | 28.56405 | 25816 ft | 410 kts | 308° |
| 2026-04-19 19:31 | 37.46983 | 28.53497 | 25274 ft | 407 kts | 308° |
| 2026-04-19 19:32 | 37.48625 | 28.50612 | 24743 ft | 404 kts | 308° |
| 2026-04-19 19:32 | 37.50247 | 28.47746 | 24210 ft | 401 kts | 308° |
| 2026-04-19 19:32 | 37.51857 | 28.44897 | 23684 ft | 397 kts | 308° |
| 2026-04-19 19:32 | 37.53461 | 28.42063 | 23119 ft | 396 kts | 308° |
| 2026-04-19 19:33 | 37.55052 | 28.39250 | 22600 ft | 393 kts | 308° |
| 2026-04-19 19:33 | 37.56636 | 28.36447 | 22060 ft | 391 kts | 309° |
| 2026-04-19 19:33 | 37.58203 | 28.33668 | 21567 ft | 388 kts | 309° |
| 2026-04-19 19:33 | 37.59762 | 28.30903 | 21053 ft | 385 kts | 309° |
| 2026-04-19 19:34 | 37.61312 | 28.28156 | 20545 ft | 383 kts | 309° |
| 2026-04-19 19:34 | 37.62848 | 28.25426 | 20053 ft | 381 kts | 308° |
| 2026-04-19 19:34 | 37.64376 | 28.22711 | 19552 ft | 378 kts | 308° |
| 2026-04-19 19:34 | 37.65888 | 28.20019 | 19057 ft | 376 kts | 308° |
| 2026-04-19 19:35 | 37.66889 | 28.18238 | 18723 ft | 374 kts | 308° |
| 2026-04-19 19:35 | 37.68892 | 28.14668 | 18041 ft | 371 kts | 308° |
| 2026-04-19 19:35 | 37.70377 | 28.12021 | 17547 ft | 368 kts | 308° |
| 2026-04-19 19:35 | 37.71850 | 28.09391 | 17063 ft | 366 kts | 308° |
| 2026-04-19 19:36 | 37.73312 | 28.06779 | 16585 ft | 363 kts | 308° |
| 2026-04-19 19:36 | 37.74760 | 28.04190 | 16096 ft | 360 kts | 309° |
| 2026-04-19 19:36 | 37.76202 | 28.01612 | 15635 ft | 358 kts | 308° |
| 2026-04-19 19:36 | 37.77631 | 27.99054 | 15170 ft | 355 kts | 308° |
| 2026-04-19 19:37 | 37.79049 | 27.96511 | 14697 ft | 353 kts | 308° |
| 2026-04-19 19:37 | 37.80460 | 27.93981 | 14231 ft | 351 kts | 308° |
| 2026-04-19 19:37 | 37.81861 | 27.91468 | 13766 ft | 349 kts | 308° |
| 2026-04-19 19:37 | 37.83251 | 27.88970 | 13282 ft | 346 kts | 308° |
| 2026-04-19 19:38 | 37.84633 | 27.86485 | 12828 ft | 344 kts | 308° |
| 2026-04-19 19:38 | 37.86012 | 27.84007 | 12374 ft | 342 kts | 308° |
| 2026-04-19 19:38 | 37.87377 | 27.81548 | 11922 ft | 340 kts | 308° |
| 2026-04-19 19:38 | 37.88730 | 27.79093 | 11465 ft | 339 kts | 307° |
| 2026-04-19 19:39 | 37.89667 | 27.76405 | 10996 ft | 327 kts | 288° |
| 2026-04-19 19:39 | 37.90034 | 27.73668 | 10613 ft | 304 kts | 282° |
| 2026-04-19 19:39 | 37.90335 | 27.71089 | 10232 ft | 291 kts | 282° |
| 2026-04-19 19:39 | 37.90646 | 27.68582 | 9848 ft | 287 kts | 283° |
| 2026-04-19 19:40 | 37.90957 | 27.66101 | 9451 ft | 284 kts | 283° |
| 2026-04-19 19:40 | 37.91255 | 27.63640 | 9079 ft | 283 kts | 282° |
| 2026-04-19 19:40 | 37.91550 | 27.61179 | 8715 ft | 283 kts | 282° |
| 2026-04-19 19:40 | 37.91847 | 27.58725 | 8341 ft | 282 kts | 282° |
| 2026-04-19 19:41 | 37.92145 | 27.56273 | 7970 ft | 281 kts | 282° |
| 2026-04-19 19:41 | 37.92439 | 27.53827 | 7600 ft | 280 kts | 282° |
| 2026-04-19 19:41 | 37.92728 | 27.51426 | 7235 ft | 279 kts | 281° |
| 2026-04-19 19:41 | 37.93018 | 27.49014 | 6871 ft | 271 kts | 281° |
| 2026-04-19 19:42 | 37.93292 | 27.46706 | 6517 ft | 260 kts | 283° |
| 2026-04-19 19:42 | 37.93556 | 27.44490 | 6179 ft | 249 kts | 284° |
| 2026-04-19 19:42 | 37.93814 | 27.42348 | 5847 ft | 243 kts | 284° |
| 2026-04-19 19:42 | 37.94064 | 27.40257 | 5456 ft | 239 kts | 284° |
| 2026-04-19 19:43 | 37.94326 | 27.38115 | 5003 ft | 246 kts | 284° |
| 2026-04-19 19:43 | 37.94574 | 27.35987 | 4635 ft | 242 kts | 284° |
| 2026-04-19 19:43 | 37.94710 | 27.33886 | 4429 ft | 240 kts | 270° |
| 2026-04-19 19:43 | 37.94084 | 27.31895 | 4448 ft | 253 kts | 239° |
| 2026-04-19 19:44 | 37.92700 | 27.30522 | 4457 ft | 259 kts | 204° |
| 2026-04-19 19:44 | 37.90934 | 27.30249 | 4460 ft | 255 kts | 169° |
| 2026-04-19 19:44 | 37.89373 | 27.31147 | 4466 ft | 243 kts | 135° |
| 2026-04-19 19:44 | 37.88369 | 27.32797 | 4475 ft | 232 kts | 108° |
| 2026-04-19 19:45 | 37.88059 | 27.34780 | 4466 ft | 226 kts | 82° |
| 2026-04-19 19:45 | 37.88388 | 27.36666 | 4497 ft | 219 kts | 67° |
| 2026-04-19 19:45 | 37.88851 | 27.38519 | 4488 ft | 221 kts | 68° |
| 2026-04-19 19:45 | 37.89298 | 27.40378 | 4495 ft | 223 kts | 68° |
| 2026-04-19 19:46 | 37.89744 | 27.42242 | 4494 ft | 219 kts | 68° |
| 2026-04-19 19:46 | 37.90188 | 27.44088 | 4450 ft | 215 kts | 67° |
| 2026-04-19 19:46 | 37.90756 | 27.45837 | 4431 ft | 214 kts | 53° |
| 2026-04-19 19:46 | 37.91817 | 27.47098 | 4456 ft | 210 kts | 31° |
| 2026-04-19 19:47 | 37.93217 | 27.47723 | 4453 ft | 222 kts | 9° |
| 2026-04-19 19:47 | 37.94755 | 27.47528 | 4450 ft | 226 kts | 344° |
| 2026-04-19 19:47 | 37.96066 | 27.46515 | 4466 ft | 220 kts | 322° |
| 2026-04-19 19:47 | 37.96910 | 27.44883 | 4464 ft | 228 kts | 297° |
| 2026-04-19 19:48 | 37.97113 | 27.42836 | 4472 ft | 246 kts | 270° |
| 2026-04-19 19:48 | 37.96678 | 27.40713 | 4488 ft | 251 kts | 257° |
| 2026-04-19 19:48 | 37.96324 | 27.39308 | 4504 ft | 253 kts | 257° |
| 2026-04-19 19:48 | 37.95806 | 27.37205 | 4494 ft | 249 kts | 258° |
| 2026-04-19 19:49 | 37.95305 | 27.35105 | 4491 ft | 248 kts | 258° |
| 2026-04-19 19:49 | 37.94791 | 27.33024 | 4485 ft | 248 kts | 255° |
| 2026-04-19 19:49 | 37.93774 | 27.31233 | 4413 ft | 258 kts | 222° |
| 2026-04-19 19:49 | 37.92156 | 27.30293 | 4442 ft | 260 kts | 189° |
| 2026-04-19 19:50 | 37.90389 | 27.30488 | 4455 ft | 254 kts | 157° |
| 2026-04-19 19:50 | 37.88977 | 27.31689 | 4470 ft | 243 kts | 127° |
| 2026-04-19 19:50 | 37.88199 | 27.33501 | 4502 ft | 232 kts | 100° |
| 2026-04-19 19:50 | 37.88142 | 27.35475 | 4475 ft | 219 kts | 74° |
| 2026-04-19 19:51 | 37.88562 | 27.37328 | 4503 ft | 221 kts | 67° |
| 2026-04-19 19:51 | 37.89010 | 27.39183 | 4486 ft | 220 kts | 69° |
| 2026-04-19 19:51 | 37.89457 | 27.41049 | 4491 ft | 221 kts | 68° |
| 2026-04-19 19:51 | 37.89902 | 27.42900 | 4485 ft | 221 kts | 68° |
| 2026-04-19 19:52 | 37.90343 | 27.44725 | 4491 ft | 216 kts | 68° |
| 2026-04-19 19:52 | 37.91089 | 27.46341 | 4460 ft | 209 kts | 44° |
| 2026-04-19 19:52 | 37.92277 | 27.47400 | 4452 ft | 211 kts | 24° |
| 2026-04-19 19:52 | 37.93769 | 27.47757 | 4466 ft | 224 kts | 1° |
| 2026-04-19 19:53 | 37.95271 | 27.47246 | 4456 ft | 225 kts | 336° |
| 2026-04-19 19:53 | 37.96431 | 27.45992 | 4461 ft | 222 kts | 313° |
| 2026-04-19 19:53 | 37.97068 | 27.44179 | 4457 ft | 232 kts | 288° |
| 2026-04-19 19:53 | 37.96999 | 27.42068 | 4462 ft | 249 kts | 261° |
| 2026-04-19 19:54 | 37.96489 | 27.39957 | 4496 ft | 255 kts | 256° |
| 2026-04-19 19:54 | 37.95962 | 27.37855 | 4491 ft | 242 kts | 258° |
| 2026-04-19 19:54 | 37.95483 | 27.35877 | 4477 ft | 231 kts | 258° |
| 2026-04-19 19:54 | 37.95031 | 27.33944 | 4472 ft | 227 kts | 259° |
| 2026-04-19 19:55 | 37.94918 | 27.32012 | 4471 ft | 216 kts | 279° |
| 2026-04-19 19:55 | 37.95044 | 27.30097 | 4468 ft | 220 kts | 281° |
| 2026-04-19 19:55 | 37.95118 | 27.28147 | 4261 ft | 222 kts | 278° |
| 2026-04-19 19:55 | 37.95177 | 27.26229 | 4054 ft | 214 kts | 279° |
| 2026-04-19 19:56 | 37.95251 | 27.24404 | 3843 ft | 207 kts | 280° |
| 2026-04-19 19:56 | 37.95330 | 27.22599 | 3610 ft | 204 kts | 280° |
| 2026-04-19 19:56 | 37.95404 | 27.20821 | 3324 ft | 201 kts | 280° |
| 2026-04-19 19:56 | 37.95477 | 27.19065 | 3041 ft | 198 kts | 279° |
| 2026-04-19 19:57 | 37.95548 | 27.17341 | 2883 ft | 191 kts | 279° |
| 2026-04-19 19:57 | 37.95578 | 27.15632 | 2858 ft | 203 kts | 269° |
| 2026-04-19 19:57 | 37.94903 | 27.14032 | 2793 ft | 206 kts | 231° |
| 2026-04-19 19:57 | 37.93903 | 27.12720 | 2908 ft | 211 kts | 229° |
| 2026-04-19 19:58 | 37.92889 | 27.11372 | 2900 ft | 211 kts | 230° |
| 2026-04-19 19:58 | 37.91872 | 27.10035 | 2907 ft | 211 kts | 229° |
| 2026-04-19 19:58 | 37.90868 | 27.08696 | 2904 ft | 210 kts | 229° |
| 2026-04-19 19:58 | 37.89928 | 27.07298 | 2845 ft | 208 kts | 246° |
| 2026-04-19 19:59 | 37.89802 | 27.05602 | 2688 ft | 187 kts | 297° |
| 2026-04-19 19:59 | 37.90657 | 27.04598 | 2664 ft | 166 kts | 350° |
| 2026-04-19 19:59 | 37.91704 | 27.04967 | 2631 ft | 163 kts | 40° |
| 2026-04-19 19:59 | 37.92400 | 27.06104 | 2779 ft | 166 kts | 50° |
| 2026-04-19 20:00 | 37.93092 | 27.07267 | 2993 ft | 166 kts | 48° |
| 2026-04-19 20:00 | 37.93832 | 27.08427 | 2947 ft | 171 kts | 49° |
| 2026-04-19 20:00 | 37.94533 | 27.09613 | 2906 ft | 166 kts | 50° |
| 2026-04-19 20:00 | 37.95108 | 27.10893 | 2904 ft | 169 kts | 60° |
| 2026-04-19 20:01 | 37.95500 | 27.12303 | 2891 ft | 171 kts | 69° |
| 2026-04-19 20:01 | 37.95638 | 27.13822 | 2887 ft | 176 kts | 83° |
| 2026-04-19 20:01 | 37.95616 | 27.15384 | 2894 ft | 178 kts | 85° |
| 2026-04-19 20:01 | 37.95565 | 27.16958 | 2894 ft | 180 kts | 86° |
| 2026-04-19 20:02 | 37.95501 | 27.18566 | 2896 ft | 184 kts | 86° |
| 2026-04-19 20:02 | 37.95430 | 27.20081 | 2885 ft | 161 kts | 85° |
| 2026-04-19 20:02 | 37.95362 | 27.21465 | 2784 ft | 158 kts | 86° |
| 2026-04-19 20:02 | 37.95233 | 27.22825 | 2406 ft | 155 kts | 89° |
| 2026-04-19 20:03 | 37.95099 | 27.24156 | 1915 ft | 150 kts | 90° |
| 2026-04-19 20:03 | 37.94996 | 27.25433 | 1567 ft | 142 kts | 87° |
| 2026-04-19 20:03 | 37.94977 | 27.26648 | 1201 ft | 134 kts | 82° |
| 2026-04-19 20:03 | 37.95008 | 27.27821 | 879 ft | 133 kts | 82° |
| 2026-04-19 20:04 | 37.95049 | 27.28993 | 556 ft | 130 kts | 85° |
| 2026-04-19 20:04 | 37.95030 | 27.30135 | 336 ft | 130 kts | 87° |
| 2026-04-19 20:04 | 37.95046 | 27.31252 | 148 ft | 125 kts | 85° |
| 2026-04-19 20:04 | 37.95066 | 27.32324 | 34 ft | 115 kts | 86° |
| 2026-04-19 20:05 | 37.95076 | 27.33068 | 36 ft | 55 kts | 89° |
| 2026-04-19 20:05 | 37.95079 | 27.33381 | 37 ft | 28 kts | 89° |
| 2026-04-19 20:05 | 37.95083 | 27.33656 | 35 ft | 30 kts | 88° |
| 2026-04-19 20:05 | 37.95086 | 27.33812 | 34 ft | 7 kts | 89° |
| 2026-04-19 20:06 | 37.95080 | 27.33865 | 35 ft | 6 kts | 122° |
| 2026-04-19 20:06 | 37.95045 | 27.33882 | 34 ft | 4 kts | 173° |
| 2026-04-19 20:06 | 37.95031 | 27.33882 | 34 ft | 5 kts | 179° |
| 2026-04-19 20:06 | 37.95000 | 27.33881 | 36 ft | 4 kts | 183° |
| 2026-04-19 20:07 | 37.94989 | 27.33856 | 34 ft | 3 kts | 271° |
| 2026-04-19 20:07 | 37.94989 | 27.33854 | 34 ft | 0 kts | 270° |